sensor_id;sensor_type;location;lat;lon;timestamp;P1;durP1;ratioP1;P2;durP2;ratioP2
8652;SDS011;4364;52.426;9.424;2022-08-25T00:01:36;7.43;;;5.20;;
8652;SDS011;4364;52.426;9.424;2022-08-25T00:04:06;6.83;;;5.10;;
8652;SDS011;4364;52.426;9.424;2022-08-25T00:06:36;6.83;;;4.93;;
8652;SDS011;4364;52.426;9.424;2022-08-25T00:09:08;7.37;;;5.27;;
8652;SDS011;4364;52.426;9.424;2022-08-25T00:11:37;6.23;;;5.30;;
8652;SDS011;4364;52.426;9.424;2022-08-25T00:14:10;8.50;;;5.50;;
8652;SDS011;4364;52.426;9.424;2022-08-25T00:16:39;6.03;;;4.90;;
8652;SDS011;4364;52.426;9.424;2022-08-25T00:19:08;6.50;;;4.73;;
8652;SDS011;4364;52.426;9.424;2022-08-25T00:21:37;8.13;;;5.63;;
8652;SDS011;4364;52.426;9.424;2022-08-25T00:24:06;6.37;;;4.93;;
8652;SDS011;4364;52.426;9.424;2022-08-25T00:26:37;7.53;;;5.50;;
8652;SDS011;4364;52.426;9.424;2022-08-25T00:29:05;7.63;;;5.07;;
8652;SDS011;4364;52.426;9.424;2022-08-25T00:31:33;8.40;;;5.40;;
8652;SDS011;4364;52.426;9.424;2022-08-25T00:34:06;6.63;;;5.33;;
8652;SDS011;4364;52.426;9.424;2022-08-25T00:36:35;6.47;;;5.67;;
8652;SDS011;4364;52.426;9.424;2022-08-25T00:39:03;7.27;;;5.47;;
8652;SDS011;4364;52.426;9.424;2022-08-25T00:41:36;8.50;;;5.40;;
8652;SDS011;4364;52.426;9.424;2022-08-25T00:44:06;7.70;;;5.83;;
8652;SDS011;4364;52.426;9.424;2022-08-25T00:46:36;8.97;;;5.87;;
8652;SDS011;4364;52.426;9.424;2022-08-25T00:54:28;7.10;;;5.33;;
8652;SDS011;4364;52.426;9.424;2022-08-25T00:57:00;8.50;;;5.83;;
8652;SDS011;4364;52.426;9.424;2022-08-25T00:59:31;7.50;;;5.57;;
8652;SDS011;4364;52.426;9.424;2022-08-25T01:02:08;6.33;;;5.23;;
8652;SDS011;4364;52.426;9.424;2022-08-25T01:04:39;8.83;;;6.03;;
8652;SDS011;4364;52.426;9.424;2022-08-25T01:07:14;7.67;;;5.63;;
8652;SDS011;4364;52.426;9.424;2022-08-25T01:09:44;7.50;;;5.50;;
8652;SDS011;4364;52.426;9.424;2022-08-25T01:12:12;9.77;;;5.77;;
8652;SDS011;4364;52.426;9.424;2022-08-25T01:14:39;8.40;;;5.93;;
8652;SDS011;4364;52.426;9.424;2022-08-25T01:17:06;10.07;;;6.23;;
8652;SDS011;4364;52.426;9.424;2022-08-25T01:19:34;11.47;;;6.40;;
8652;SDS011;4364;52.426;9.424;2022-08-25T01:22:03;8.53;;;6.97;;
8652;SDS011;4364;52.426;9.424;2022-08-25T01:24:35;8.63;;;6.87;;
8652;SDS011;4364;52.426;9.424;2022-08-25T01:27:18;9.80;;;5.97;;
8652;SDS011;4364;52.426;9.424;2022-08-25T01:29:46;8.67;;;7.03;;
8652;SDS011;4364;52.426;9.424;2022-08-25T01:32:13;12.60;;;7.17;;
8652;SDS011;4364;52.426;9.424;2022-08-25T01:34:40;10.83;;;6.63;;
8652;SDS011;4364;52.426;9.424;2022-08-25T01:37:10;11.60;;;6.70;;
8652;SDS011;4364;52.426;9.424;2022-08-25T01:39:39;11.40;;;7.27;;
8652;SDS011;4364;52.426;9.424;2022-08-25T01:44:54;12.00;;;7.17;;
8652;SDS011;4364;52.426;9.424;2022-08-25T01:47:22;10.20;;;7.10;;
8652;SDS011;4364;52.426;9.424;2022-08-25T01:49:49;9.13;;;6.73;;
8652;SDS011;4364;52.426;9.424;2022-08-25T01:52:24;9.27;;;6.87;;
8652;SDS011;4364;52.426;9.424;2022-08-25T01:54:54;13.60;;;7.10;;
8652;SDS011;4364;52.426;9.424;2022-08-25T01:57:24;8.50;;;6.07;;
8652;SDS011;4364;52.426;9.424;2022-08-25T01:59:50;9.13;;;6.73;;
8652;SDS011;4364;52.426;9.424;2022-08-25T02:02:17;9.63;;;6.80;;
8652;SDS011;4364;52.426;9.424;2022-08-25T02:05:10;11.07;;;7.30;;
8652;SDS011;4364;52.426;9.424;2022-08-25T02:07:39;10.27;;;6.63;;
8652;SDS011;4364;52.426;9.424;2022-08-25T02:10:08;11.60;;;7.03;;
8652;SDS011;4364;52.426;9.424;2022-08-25T02:12:36;8.13;;;6.67;;
8652;SDS011;4364;52.426;9.424;2022-08-25T02:15:06;9.00;;;6.60;;
8652;SDS011;4364;52.426;9.424;2022-08-25T02:17:35;9.40;;;7.23;;
8652;SDS011;4364;52.426;9.424;2022-08-25T02:20:06;8.87;;;6.77;;
8652;SDS011;4364;52.426;9.424;2022-08-25T02:22:34;9.27;;;6.67;;
8652;SDS011;4364;52.426;9.424;2022-08-25T02:25:02;11.87;;;7.37;;
8652;SDS011;4364;52.426;9.424;2022-08-25T02:27:31;9.50;;;7.20;;
8652;SDS011;4364;52.426;9.424;2022-08-25T02:29:58;10.57;;;6.93;;
8652;SDS011;4364;52.426;9.424;2022-08-25T02:32:25;9.77;;;7.17;;
8652;SDS011;4364;52.426;9.424;2022-08-25T02:34:51;10.80;;;7.67;;
8652;SDS011;4364;52.426;9.424;2022-08-25T02:37:18;10.33;;;7.87;;
8652;SDS011;4364;52.426;9.424;2022-08-25T02:39:46;16.20;;;7.80;;
8652;SDS011;4364;52.426;9.424;2022-08-25T02:42:13;10.87;;;8.10;;
8652;SDS011;4364;52.426;9.424;2022-08-25T02:44:39;11.57;;;8.17;;
8652;SDS011;4364;52.426;9.424;2022-08-25T02:47:10;10.97;;;7.50;;
8652;SDS011;4364;52.426;9.424;2022-08-25T02:49:36;13.90;;;8.20;;
8652;SDS011;4364;52.426;9.424;2022-08-25T02:52:03;9.67;;;8.07;;
8652;SDS011;4364;52.426;9.424;2022-08-25T02:54:31;10.77;;;8.23;;
8652;SDS011;4364;52.426;9.424;2022-08-25T02:57:07;10.77;;;7.60;;
8652;SDS011;4364;52.426;9.424;2022-08-25T02:59:35;11.53;;;7.70;;
8652;SDS011;4364;52.426;9.424;2022-08-25T03:02:05;11.00;;;7.93;;
8652;SDS011;4364;52.426;9.424;2022-08-25T03:04:36;10.27;;;7.87;;
8652;SDS011;4364;52.426;9.424;2022-08-25T03:07:03;11.67;;;8.47;;
8652;SDS011;4364;52.426;9.424;2022-08-25T03:09:31;12.27;;;8.20;;
8652;SDS011;4364;52.426;9.424;2022-08-25T03:12:01;9.97;;;8.47;;
8652;SDS011;4364;52.426;9.424;2022-08-25T03:14:29;11.40;;;8.90;;
8652;SDS011;4364;52.426;9.424;2022-08-25T03:16:57;11.83;;;8.43;;
8652;SDS011;4364;52.426;9.424;2022-08-25T03:19:24;12.70;;;8.67;;
8652;SDS011;4364;52.426;9.424;2022-08-25T03:21:50;14.00;;;9.37;;
8652;SDS011;4364;52.426;9.424;2022-08-25T03:24:24;11.20;;;8.43;;
8652;SDS011;4364;52.426;9.424;2022-08-25T03:26:52;10.77;;;8.40;;
8652;SDS011;4364;52.426;9.424;2022-08-25T03:32:12;16.37;;;8.93;;
8652;SDS011;4364;52.426;9.424;2022-08-25T03:34:38;10.83;;;8.00;;
8652;SDS011;4364;52.426;9.424;2022-08-25T03:37:05;15.90;;;9.43;;
8652;SDS011;4364;52.426;9.424;2022-08-25T03:39:37;13.30;;;9.67;;
8652;SDS011;4364;52.426;9.424;2022-08-25T03:42:04;12.63;;;9.07;;
8652;SDS011;4364;52.426;9.424;2022-08-25T03:44:31;12.13;;;8.97;;
8652;SDS011;4364;52.426;9.424;2022-08-25T03:46:58;11.57;;;9.17;;
8652;SDS011;4364;52.426;9.424;2022-08-25T03:49:25;14.20;;;8.77;;
8652;SDS011;4364;52.426;9.424;2022-08-25T03:51:52;12.23;;;8.67;;
8652;SDS011;4364;52.426;9.424;2022-08-25T03:54:21;14.57;;;9.60;;
8652;SDS011;4364;52.426;9.424;2022-08-25T03:56:49;13.57;;;9.83;;
8652;SDS011;4364;52.426;9.424;2022-08-25T03:59:16;13.83;;;9.60;;
8652;SDS011;4364;52.426;9.424;2022-08-25T04:01:44;11.53;;;8.97;;
8652;SDS011;4364;52.426;9.424;2022-08-25T04:04:15;12.30;;;9.57;;
8652;SDS011;4364;52.426;9.424;2022-08-25T04:06:42;12.00;;;8.97;;
8652;SDS011;4364;52.426;9.424;2022-08-25T04:09:09;12.00;;;9.13;;
8652;SDS011;4364;52.426;9.424;2022-08-25T04:11:39;12.03;;;9.50;;
8652;SDS011;4364;52.426;9.424;2022-08-25T04:14:07;14.07;;;8.90;;
8652;SDS011;4364;52.426;9.424;2022-08-25T04:16:41;12.90;;;10.30;;
8652;SDS011;4364;52.426;9.424;2022-08-25T04:19:07;13.47;;;10.10;;
8652;SDS011;4364;52.426;9.424;2022-08-25T04:21:35;16.77;;;9.93;;
8652;SDS011;4364;52.426;9.424;2022-08-25T04:24:04;14.87;;;9.97;;
8652;SDS011;4364;52.426;9.424;2022-08-25T04:26:43;14.83;;;10.63;;
8652;SDS011;4364;52.426;9.424;2022-08-25T04:29:13;13.33;;;10.37;;
8652;SDS011;4364;52.426;9.424;2022-08-25T04:31:42;10.90;;;9.77;;
8652;SDS011;4364;52.426;9.424;2022-08-25T04:34:13;13.57;;;9.60;;
8652;SDS011;4364;52.426;9.424;2022-08-25T04:37:00;14.03;;;10.50;;
8652;SDS011;4364;52.426;9.424;2022-08-25T04:39:31;12.80;;;10.30;;
8652;SDS011;4364;52.426;9.424;2022-08-25T04:41:58;14.77;;;11.50;;
8652;SDS011;4364;52.426;9.424;2022-08-25T04:44:28;13.77;;;10.27;;
8652;SDS011;4364;52.426;9.424;2022-08-25T04:46:57;14.37;;;10.83;;
8652;SDS011;4364;52.426;9.424;2022-08-25T04:49:24;19.40;;;10.87;;
8652;SDS011;4364;52.426;9.424;2022-08-25T04:51:50;15.10;;;10.50;;
8652;SDS011;4364;52.426;9.424;2022-08-25T04:54:18;14.13;;;10.33;;
8652;SDS011;4364;52.426;9.424;2022-08-25T04:56:49;13.90;;;11.27;;
8652;SDS011;4364;52.426;9.424;2022-08-25T04:59:23;15.97;;;11.20;;
8652;SDS011;4364;52.426;9.424;2022-08-25T05:01:57;14.93;;;11.43;;
8652;SDS011;4364;52.426;9.424;2022-08-25T05:04:28;19.80;;;11.53;;
8652;SDS011;4364;52.426;9.424;2022-08-25T05:06:56;16.47;;;11.67;;
8652;SDS011;4364;52.426;9.424;2022-08-25T05:09:24;15.27;;;11.93;;
8652;SDS011;4364;52.426;9.424;2022-08-25T05:11:51;17.27;;;11.47;;
8652;SDS011;4364;52.426;9.424;2022-08-25T05:14:24;18.30;;;12.20;;
8652;SDS011;4364;52.426;9.424;2022-08-25T05:16:52;14.93;;;12.03;;
8652;SDS011;4364;52.426;9.424;2022-08-25T05:19:20;17.53;;;11.77;;
8652;SDS011;4364;52.426;9.424;2022-08-25T05:21:47;17.53;;;11.97;;
8652;SDS011;4364;52.426;9.424;2022-08-25T05:24:14;17.27;;;12.40;;
8652;SDS011;4364;52.426;9.424;2022-08-25T05:26:42;19.70;;;12.30;;
8652;SDS011;4364;52.426;9.424;2022-08-25T05:29:08;15.43;;;12.23;;
8652;SDS011;4364;52.426;9.424;2022-08-25T05:31:36;19.27;;;12.90;;
8652;SDS011;4364;52.426;9.424;2022-08-25T05:34:09;18.43;;;13.07;;
8652;SDS011;4364;52.426;9.424;2022-08-25T05:36:37;18.83;;;12.63;;
8652;SDS011;4364;52.426;9.424;2022-08-25T05:39:08;20.07;;;13.97;;
8652;SDS011;4364;52.426;9.424;2022-08-25T05:41:35;19.87;;;13.30;;
8652;SDS011;4364;52.426;9.424;2022-08-25T05:44:03;21.23;;;14.10;;
8652;SDS011;4364;52.426;9.424;2022-08-25T05:46:31;17.10;;;13.30;;
8652;SDS011;4364;52.426;9.424;2022-08-25T05:48:58;20.30;;;14.93;;
8652;SDS011;4364;52.426;9.424;2022-08-25T05:51:26;21.17;;;14.60;;
8652;SDS011;4364;52.426;9.424;2022-08-25T05:53:53;16.10;;;13.60;;
8652;SDS011;4364;52.426;9.424;2022-08-25T05:56:19;18.43;;;13.93;;
8652;SDS011;4364;52.426;9.424;2022-08-25T05:58:46;18.57;;;14.37;;
8652;SDS011;4364;52.426;9.424;2022-08-25T06:01:17;20.00;;;13.27;;
8652;SDS011;4364;52.426;9.424;2022-08-25T06:04:11;19.33;;;13.87;;
8652;SDS011;4364;52.426;9.424;2022-08-25T06:06:38;22.10;;;15.40;;
8652;SDS011;4364;52.426;9.424;2022-08-25T06:09:05;23.33;;;15.10;;
8652;SDS011;4364;52.426;9.424;2022-08-25T06:11:34;17.77;;;14.57;;
8652;SDS011;4364;52.426;9.424;2022-08-25T06:14:06;23.17;;;14.73;;
8652;SDS011;4364;52.426;9.424;2022-08-25T06:16:33;22.03;;;15.00;;
8652;SDS011;4364;52.426;9.424;2022-08-25T06:19:01;21.57;;;15.77;;
8652;SDS011;4364;52.426;9.424;2022-08-25T06:21:37;20.37;;;15.00;;
8652;SDS011;4364;52.426;9.424;2022-08-25T06:24:07;20.67;;;15.03;;
8652;SDS011;4364;52.426;9.424;2022-08-25T06:26:40;23.07;;;15.13;;
8652;SDS011;4364;52.426;9.424;2022-08-25T06:29:07;24.33;;;15.33;;
8652;SDS011;4364;52.426;9.424;2022-08-25T06:31:34;22.00;;;14.83;;
8652;SDS011;4364;52.426;9.424;2022-08-25T06:34:01;22.03;;;15.53;;
8652;SDS011;4364;52.426;9.424;2022-08-25T06:36:28;24.70;;;16.53;;
8652;SDS011;4364;52.426;9.424;2022-08-25T06:38:55;20.07;;;15.40;;
8652;SDS011;4364;52.426;9.424;2022-08-25T06:41:21;22.70;;;15.60;;
8652;SDS011;4364;52.426;9.424;2022-08-25T06:43:48;22.03;;;14.37;;
8652;SDS011;4364;52.426;9.424;2022-08-25T06:46:25;23.10;;;15.33;;
8652;SDS011;4364;52.426;9.424;2022-08-25T06:49:05;26.80;;;14.30;;
8652;SDS011;4364;52.426;9.424;2022-08-25T06:51:33;21.67;;;12.87;;
8652;SDS011;4364;52.426;9.424;2022-08-25T06:54:04;19.67;;;14.27;;
8652;SDS011;4364;52.426;9.424;2022-08-25T06:56:32;19.00;;;13.93;;
8652;SDS011;4364;52.426;9.424;2022-08-25T06:59:03;18.27;;;13.73;;
8652;SDS011;4364;52.426;9.424;2022-08-25T07:01:35;20.30;;;13.93;;
8652;SDS011;4364;52.426;9.424;2022-08-25T07:04:03;21.07;;;13.90;;
8652;SDS011;4364;52.426;9.424;2022-08-25T07:06:38;17.80;;;13.43;;
8652;SDS011;4364;52.426;9.424;2022-08-25T07:09:06;18.17;;;13.30;;
8652;SDS011;4364;52.426;9.424;2022-08-25T07:11:34;17.77;;;12.87;;
8652;SDS011;4364;52.426;9.424;2022-08-25T07:14:01;17.80;;;12.67;;
8652;SDS011;4364;52.426;9.424;2022-08-25T07:16:30;16.43;;;13.13;;
8652;SDS011;4364;52.426;9.424;2022-08-25T07:18:59;16.67;;;12.20;;
8652;SDS011;4364;52.426;9.424;2022-08-25T07:21:28;17.10;;;13.27;;
8652;SDS011;4364;52.426;9.424;2022-08-25T07:23:59;17.33;;;12.30;;
8652;SDS011;4364;52.426;9.424;2022-08-25T07:26:29;19.47;;;13.83;;
8652;SDS011;4364;52.426;9.424;2022-08-25T07:29:38;17.00;;;12.50;;
8652;SDS011;4364;52.426;9.424;2022-08-25T07:32:00;21.27;;;13.90;;
8652;SDS011;4364;52.426;9.424;2022-08-25T07:34:27;17.00;;;13.20;;
8652;SDS011;4364;52.426;9.424;2022-08-25T07:37:18;21.03;;;13.47;;
8652;SDS011;4364;52.426;9.424;2022-08-25T07:40:06;20.63;;;13.47;;
8652;SDS011;4364;52.426;9.424;2022-08-25T07:42:34;18.97;;;13.40;;
8652;SDS011;4364;52.426;9.424;2022-08-25T07:45:04;17.63;;;13.80;;
8652;SDS011;4364;52.426;9.424;2022-08-25T07:48:04;19.73;;;13.77;;
8652;SDS011;4364;52.426;9.424;2022-08-25T07:50:35;20.33;;;13.77;;
8652;SDS011;4364;52.426;9.424;2022-08-25T07:53:08;17.97;;;13.73;;
8652;SDS011;4364;52.426;9.424;2022-08-25T07:55:35;18.83;;;13.20;;
8652;SDS011;4364;52.426;9.424;2022-08-25T07:58:07;19.10;;;14.77;;
8652;SDS011;4364;52.426;9.424;2022-08-25T08:00:37;19.30;;;13.43;;
8652;SDS011;4364;52.426;9.424;2022-08-25T08:06:16;18.13;;;13.00;;
8652;SDS011;4364;52.426;9.424;2022-08-25T08:08:45;21.17;;;14.03;;
8652;SDS011;4364;52.426;9.424;2022-08-25T08:11:19;17.80;;;14.00;;
8652;SDS011;4364;52.426;9.424;2022-08-25T08:13:52;18.03;;;13.13;;
8652;SDS011;4364;52.426;9.424;2022-08-25T08:16:21;14.60;;;12.13;;
8652;SDS011;4364;52.426;9.424;2022-08-25T08:18:49;17.77;;;14.20;;
8652;SDS011;4364;52.426;9.424;2022-08-25T08:21:17;20.52;;;13.18;;
8652;SDS011;4364;52.426;9.424;2022-08-25T08:23:47;19.83;;;13.55;;
8652;SDS011;4364;52.426;9.424;2022-08-25T08:26:14;21.13;;;13.45;;
8652;SDS011;4364;52.426;9.424;2022-08-25T08:28:42;15.73;;;12.75;;
8652;SDS011;4364;52.426;9.424;2022-08-25T08:31:09;17.35;;;12.63;;
8652;SDS011;4364;52.426;9.424;2022-08-25T08:33:36;16.10;;;12.52;;
8652;SDS011;4364;52.426;9.424;2022-08-25T08:36:07;21.05;;;12.88;;
8652;SDS011;4364;52.426;9.424;2022-08-25T08:38:39;16.63;;;12.82;;
8652;SDS011;4364;52.426;9.424;2022-08-25T08:44:52;16.23;;;12.65;;
8652;SDS011;4364;52.426;9.424;2022-08-25T08:55:36;13.43;;;11.63;;
8652;SDS011;4364;52.426;9.424;2022-08-25T08:58:08;19.88;;;12.45;;
8652;SDS011;4364;52.426;9.424;2022-08-25T09:00:43;15.70;;;12.43;;
8652;SDS011;4364;52.426;9.424;2022-08-25T09:03:26;16.00;;;11.48;;
8652;SDS011;4364;52.426;9.424;2022-08-25T09:06:00;15.38;;;11.50;;
8652;SDS011;4364;52.426;9.424;2022-08-25T09:08:32;13.70;;;12.07;;
8652;SDS011;4364;52.426;9.424;2022-08-25T09:19:08;16.27;;;11.20;;
8652;SDS011;4364;52.426;9.424;2022-08-25T09:28:17;15.35;;;10.82;;
8652;SDS011;4364;52.426;9.424;2022-08-25T09:30:50;14.93;;;11.07;;
8652;SDS011;4364;52.426;9.424;2022-08-25T09:33:23;16.25;;;11.52;;
8652;SDS011;4364;52.426;9.424;2022-08-25T09:35:51;14.20;;;10.82;;
8652;SDS011;4364;52.426;9.424;2022-08-25T09:38:22;14.98;;;11.10;;
8652;SDS011;4364;52.426;9.424;2022-08-25T09:40:52;18.13;;;11.75;;
8652;SDS011;4364;52.426;9.424;2022-08-25T09:45:49;13.88;;;12.20;;
8652;SDS011;4364;52.426;9.424;2022-08-25T09:48:25;13.75;;;10.95;;
8652;SDS011;4364;52.426;9.424;2022-08-25T09:50:59;14.98;;;10.98;;
8652;SDS011;4364;52.426;9.424;2022-08-25T09:53:35;14.15;;;10.77;;
8652;SDS011;4364;52.426;9.424;2022-08-25T09:56:07;17.88;;;12.10;;
8652;SDS011;4364;52.426;9.424;2022-08-25T09:58:36;16.10;;;11.80;;
8652;SDS011;4364;52.426;9.424;2022-08-25T10:01:11;13.25;;;11.57;;
8652;SDS011;4364;52.426;9.424;2022-08-25T10:03:55;13.73;;;11.98;;
8652;SDS011;4364;52.426;9.424;2022-08-25T10:07:03;13.32;;;11.50;;
8652;SDS011;4364;52.426;9.424;2022-08-25T10:09:45;17.20;;;12.32;;
8652;SDS011;4364;52.426;9.424;2022-08-25T10:12:40;15.02;;;11.40;;
8652;SDS011;4364;52.426;9.424;2022-08-25T10:15:36;15.73;;;11.52;;
8652;SDS011;4364;52.426;9.424;2022-08-25T10:18:23;16.20;;;10.98;;
8652;SDS011;4364;52.426;9.424;2022-08-25T10:23:33;15.75;;;11.52;;
8652;SDS011;4364;52.426;9.424;2022-08-25T10:26:04;16.58;;;11.98;;
8652;SDS011;4364;52.426;9.424;2022-08-25T10:28:44;17.08;;;12.05;;
8652;SDS011;4364;52.426;9.424;2022-08-25T10:31:20;15.25;;;12.32;;
8652;SDS011;4364;52.426;9.424;2022-08-25T10:34:17;17.00;;;12.05;;
8652;SDS011;4364;52.426;9.424;2022-08-25T10:40:13;17.25;;;11.88;;
8652;SDS011;4364;52.426;9.424;2022-08-25T10:45:41;12.50;;;10.73;;
8652;SDS011;4364;52.426;9.424;2022-08-25T10:48:22;17.40;;;11.85;;
8652;SDS011;4364;52.426;9.424;2022-08-25T10:54:03;14.20;;;11.48;;
8652;SDS011;4364;52.426;9.424;2022-08-25T11:00:07;13.40;;;11.45;;
8652;SDS011;4364;52.426;9.424;2022-08-25T11:02:52;16.02;;;11.38;;
8652;SDS011;4364;52.426;9.424;2022-08-25T11:05:32;13.65;;;11.05;;
8652;SDS011;4364;52.426;9.424;2022-08-25T11:08:11;13.48;;;11.35;;
8652;SDS011;4364;52.426;9.424;2022-08-25T11:16:16;13.73;;;10.32;;
8652;SDS011;4364;52.426;9.424;2022-08-25T11:27:02;12.70;;;9.82;;
8652;SDS011;4364;52.426;9.424;2022-08-25T11:29:32;14.43;;;10.48;;
8652;SDS011;4364;52.426;9.424;2022-08-25T11:32:07;16.23;;;10.50;;
8652;SDS011;4364;52.426;9.424;2022-08-25T11:34:36;11.40;;;9.80;;
8652;SDS011;4364;52.426;9.424;2022-08-25T11:37:19;15.73;;;10.38;;
8652;SDS011;4364;52.426;9.424;2022-08-25T11:43:03;13.70;;;10.38;;
8652;SDS011;4364;52.426;9.424;2022-08-25T11:48:36;15.10;;;9.90;;
8652;SDS011;4364;52.426;9.424;2022-08-25T11:51:35;16.13;;;11.07;;
8652;SDS011;4364;52.426;9.424;2022-08-25T11:54:15;16.35;;;11.18;;
8652;SDS011;4364;52.426;9.424;2022-08-25T11:56:50;16.52;;;11.50;;
8652;SDS011;4364;52.426;9.424;2022-08-25T12:13:41;16.60;;;11.00;;
8652;SDS011;4364;52.426;9.424;2022-08-25T12:19:22;13.40;;;10.55;;
8652;SDS011;4364;52.426;9.424;2022-08-25T12:21:48;12.88;;;9.85;;
8652;SDS011;4364;52.426;9.424;2022-08-25T12:24:21;14.25;;;10.63;;
8652;SDS011;4364;52.426;9.424;2022-08-25T12:30:39;13.32;;;10.73;;
8652;SDS011;4364;52.426;9.424;2022-08-25T12:36:09;12.73;;;10.30;;
8652;SDS011;4364;52.426;9.424;2022-08-25T12:38:51;15.68;;;10.80;;
8652;SDS011;4364;52.426;9.424;2022-08-25T12:41:21;14.65;;;10.73;;
8652;SDS011;4364;52.426;9.424;2022-08-25T12:43:52;16.70;;;11.10;;
8652;SDS011;4364;52.426;9.424;2022-08-25T12:46:36;13.88;;;10.07;;
8652;SDS011;4364;52.426;9.424;2022-08-25T12:51:42;14.60;;;9.63;;
8652;SDS011;4364;52.426;9.424;2022-08-25T12:57:03;12.38;;;9.20;;
8652;SDS011;4364;52.426;9.424;2022-08-25T12:59:51;12.70;;;9.07;;
8652;SDS011;4364;52.426;9.424;2022-08-25T13:02:37;15.77;;;9.45;;
8652;SDS011;4364;52.426;9.424;2022-08-25T13:11:55;11.80;;;9.23;;
8652;SDS011;4364;52.426;9.424;2022-08-25T13:14:54;11.88;;;8.93;;
8652;SDS011;4364;52.426;9.424;2022-08-25T13:17:40;11.00;;;8.77;;
8652;SDS011;4364;52.426;9.424;2022-08-25T13:20:16;14.30;;;9.18;;
8652;SDS011;4364;52.426;9.424;2022-08-25T13:22:49;13.77;;;9.15;;
8652;SDS011;4364;52.426;9.424;2022-08-25T13:25:23;11.68;;;9.57;;
8652;SDS011;4364;52.426;9.424;2022-08-25T13:27:59;14.95;;;9.38;;
8652;SDS011;4364;52.426;9.424;2022-08-25T13:30:29;11.07;;;9.40;;
8652;SDS011;4364;52.426;9.424;2022-08-25T13:33:15;11.88;;;8.98;;
8652;SDS011;4364;52.426;9.424;2022-08-25T13:35:55;12.85;;;9.05;;
8652;SDS011;4364;52.426;9.424;2022-08-25T13:38:42;13.38;;;8.88;;
8652;SDS011;4364;52.426;9.424;2022-08-25T13:41:16;9.63;;;8.65;;
8652;SDS011;4364;52.426;9.424;2022-08-25T13:43:45;11.13;;;8.93;;
8652;SDS011;4364;52.426;9.424;2022-08-25T13:46:16;14.48;;;9.68;;
8652;SDS011;4364;52.426;9.424;2022-08-25T13:48:45;12.63;;;9.43;;
8652;SDS011;4364;52.426;9.424;2022-08-25T13:51:17;15.30;;;9.25;;
8652;SDS011;4364;52.426;9.424;2022-08-25T13:54:06;12.20;;;8.95;;
8652;SDS011;4364;52.426;9.424;2022-08-25T13:56:45;13.02;;;9.07;;
8652;SDS011;4364;52.426;9.424;2022-08-25T13:59:23;18.27;;;9.35;;
8652;SDS011;4364;52.426;9.424;2022-08-25T14:01:57;10.85;;;8.82;;
8652;SDS011;4364;52.426;9.424;2022-08-25T14:12:29;11.57;;;9.10;;
8652;SDS011;4364;52.426;9.424;2022-08-25T14:15:00;13.60;;;9.50;;
8652;SDS011;4364;52.426;9.424;2022-08-25T14:17:38;15.70;;;9.05;;
8652;SDS011;4364;52.426;9.424;2022-08-25T14:20:28;16.23;;;8.68;;
8652;SDS011;4364;52.426;9.424;2022-08-25T14:23:07;14.82;;;8.82;;
8652;SDS011;4364;52.426;9.424;2022-08-25T14:25:44;12.43;;;9.13;;
8652;SDS011;4364;52.426;9.424;2022-08-25T14:28:13;13.23;;;8.73;;
8652;SDS011;4364;52.426;9.424;2022-08-25T14:30:48;13.52;;;8.73;;
8652;SDS011;4364;52.426;9.424;2022-08-25T14:33:21;15.82;;;8.63;;
8652;SDS011;4364;52.426;9.424;2022-08-25T14:35:53;14.10;;;8.35;;
8652;SDS011;4364;52.426;9.424;2022-08-25T14:38:21;10.07;;;8.32;;
8652;SDS011;4364;52.426;9.424;2022-08-25T14:40:48;10.40;;;8.48;;
8652;SDS011;4364;52.426;9.424;2022-08-25T14:43:15;12.98;;;10.38;;
8652;SDS011;4364;52.426;9.424;2022-08-25T14:45:46;10.82;;;8.68;;
8652;SDS011;4364;52.426;9.424;2022-08-25T14:48:17;9.68;;;8.07;;
8652;SDS011;4364;52.426;9.424;2022-08-25T14:50:50;12.38;;;8.10;;
8652;SDS011;4364;52.426;9.424;2022-08-25T14:53:18;14.90;;;8.40;;
8652;SDS011;4364;52.426;9.424;2022-08-25T14:55:45;11.60;;;8.02;;
8652;SDS011;4364;52.426;9.424;2022-08-25T14:58:12;14.25;;;8.55;;
8652;SDS011;4364;52.426;9.424;2022-08-25T15:00:40;11.82;;;8.07;;
8652;SDS011;4364;52.426;9.424;2022-08-25T15:03:12;13.80;;;8.68;;
8652;SDS011;4364;52.426;9.424;2022-08-25T15:05:45;11.45;;;7.95;;
8652;SDS011;4364;52.426;9.424;2022-08-25T15:08:13;11.60;;;8.15;;
8652;SDS011;4364;52.426;9.424;2022-08-25T15:10:59;11.65;;;8.23;;
8652;SDS011;4364;52.426;9.424;2022-08-25T15:13:25;13.18;;;8.20;;
8652;SDS011;4364;52.426;9.424;2022-08-25T15:15:53;11.48;;;8.05;;
8652;SDS011;4364;52.426;9.424;2022-08-25T15:18:26;11.95;;;8.45;;
8652;SDS011;4364;52.426;9.424;2022-08-25T15:20:53;12.95;;;8.07;;
8652;SDS011;4364;52.426;9.424;2022-08-25T15:23:19;11.57;;;8.07;;
8652;SDS011;4364;52.426;9.424;2022-08-25T15:25:47;11.98;;;7.88;;
8652;SDS011;4364;52.426;9.424;2022-08-25T15:28:18;12.68;;;8.30;;
8652;SDS011;4364;52.426;9.424;2022-08-25T15:30:47;11.65;;;7.50;;
8652;SDS011;4364;52.426;9.424;2022-08-25T15:33:15;11.48;;;8.55;;
8652;SDS011;4364;52.426;9.424;2022-08-25T15:35:42;13.27;;;8.68;;
8652;SDS011;4364;52.426;9.424;2022-08-25T15:38:10;9.70;;;7.57;;
8652;SDS011;4364;52.426;9.424;2022-08-25T15:40:37;12.52;;;7.88;;
8652;SDS011;4364;52.426;9.424;2022-08-25T15:43:11;12.98;;;7.85;;
8652;SDS011;4364;52.426;9.424;2022-08-25T15:45:38;10.15;;;8.07;;
8652;SDS011;4364;52.426;9.424;2022-08-25T15:48:05;9.90;;;7.65;;
8652;SDS011;4364;52.426;9.424;2022-08-25T15:50:35;13.68;;;8.35;;
8652;SDS011;4364;52.426;9.424;2022-08-25T15:53:04;11.40;;;7.90;;
8652;SDS011;4364;52.426;9.424;2022-08-25T15:55:36;12.18;;;8.05;;
8652;SDS011;4364;52.426;9.424;2022-08-25T15:58:05;14.05;;;8.02;;
8652;SDS011;4364;52.426;9.424;2022-08-25T16:00:37;12.18;;;7.53;;
8652;SDS011;4364;52.426;9.424;2022-08-25T16:03:07;11.75;;;7.75;;
8652;SDS011;4364;52.426;9.424;2022-08-25T16:05:35;11.13;;;7.75;;
8652;SDS011;4364;52.426;9.424;2022-08-25T16:08:04;10.82;;;7.80;;
8652;SDS011;4364;52.426;9.424;2022-08-25T16:10:41;9.57;;;7.88;;
8652;SDS011;4364;52.426;9.424;2022-08-25T16:13:09;9.77;;;7.95;;
8652;SDS011;4364;52.426;9.424;2022-08-25T16:15:36;11.98;;;8.00;;
8652;SDS011;4364;52.426;9.424;2022-08-25T16:18:04;11.75;;;7.60;;
8652;SDS011;4364;52.426;9.424;2022-08-25T16:20:34;14.75;;;8.48;;
8652;SDS011;4364;52.426;9.424;2022-08-25T16:23:02;11.02;;;8.50;;
8652;SDS011;4364;52.426;9.424;2022-08-25T16:25:31;14.30;;;8.05;;
8652;SDS011;4364;52.426;9.424;2022-08-25T16:28:01;13.77;;;7.90;;
8652;SDS011;4364;52.426;9.424;2022-08-25T16:30:29;13.10;;;8.57;;
8652;SDS011;4364;52.426;9.424;2022-08-25T16:32:55;11.52;;;8.20;;
8652;SDS011;4364;52.426;9.424;2022-08-25T16:35:22;13.30;;;8.25;;
8652;SDS011;4364;52.426;9.424;2022-08-25T16:37:48;12.95;;;8.77;;
8652;SDS011;4364;52.426;9.424;2022-08-25T16:40:15;12.68;;;8.45;;
8652;SDS011;4364;52.426;9.424;2022-08-25T16:42:45;10.55;;;9.07;;
8652;SDS011;4364;52.426;9.424;2022-08-25T16:45:11;10.40;;;7.70;;
8652;SDS011;4364;52.426;9.424;2022-08-25T16:47:38;11.70;;;7.85;;
8652;SDS011;4364;52.426;9.424;2022-08-25T16:50:08;12.02;;;8.38;;
8652;SDS011;4364;52.426;9.424;2022-08-25T16:52:36;12.90;;;8.18;;
8652;SDS011;4364;52.426;9.424;2022-08-25T16:55:23;8.80;;;7.65;;
8652;SDS011;4364;52.426;9.424;2022-08-25T16:57:51;15.15;;;8.43;;
8652;SDS011;4364;52.426;9.424;2022-08-25T17:00:21;12.32;;;8.73;;
8652;SDS011;4364;52.426;9.424;2022-08-25T17:02:53;11.82;;;8.13;;
8652;SDS011;4364;52.426;9.424;2022-08-25T17:05:25;15.63;;;8.30;;
8652;SDS011;4364;52.426;9.424;2022-08-25T17:07:54;13.27;;;8.43;;
8652;SDS011;4364;52.426;9.424;2022-08-25T17:10:40;13.18;;;7.93;;
8652;SDS011;4364;52.426;9.424;2022-08-25T17:13:08;12.80;;;7.82;;
8652;SDS011;4364;52.426;9.424;2022-08-25T17:15:40;10.50;;;8.30;;
8652;SDS011;4364;52.426;9.424;2022-08-25T17:18:08;14.45;;;8.80;;
8652;SDS011;4364;52.426;9.424;2022-08-25T17:20:36;19.40;;;8.52;;
8652;SDS011;4364;52.426;9.424;2022-08-25T17:23:03;10.48;;;7.90;;
8652;SDS011;4364;52.426;9.424;2022-08-25T17:25:40;13.50;;;8.20;;
8652;SDS011;4364;52.426;9.424;2022-08-25T17:28:08;14.70;;;8.40;;